Time;durP1;ratioP1;P1;durP2;ratioP2;P2;SDS_P1;SDS_P2;PMS_P1;PMS_P2;Temp;Humidity;BMP_temperature;BMP_pressure;BME280_temperature;BME280_humidity;BME280_pressure;Samples;Min_cycle;Max_cycle;Signal;HPM_P1;HPM_P2
2022/02/19 00:01:32;;;;;;;18.77;8.98;;;;;;;;;;5071951;28;20131;-39
2022/02/19 00:03:57;;;;;;;23.05;9.85;;;;;;;;;;5071901;28;20388;-39
2022/02/19 00:06:23;;;;;;;27.60;10.80;;;;;;;;;;5071899;28;20506;-39
2022/02/19 00:08:48;;;;;;;25.52;9.95;;;;;;;;;;5071757;28;20016;-39
2022/02/19 00:11:13;;;;;;;17.73;9.00;;;;;;;;;;5072059;28;20033;-39
2022/02/19 00:13:39;;;;;;;22.95;8.82;;;;;;;;;;5071732;28;20379;-40
2022/02/19 00:16:05;;;;;;;17.48;8.93;;;;;;;;;;5071634;28;20029;-39
2022/02/19 00:18:31;;;;;;;15.68;7.35;;;;;;;;;;5071539;28;20016;-39
2022/02/19 00:20:57;;;;;;;18.50;9.40;;;;;;;;;;5071790;28;20043;-39
2022/02/19 00:23:28;;;;;;;17.08;8.70;;;;;;;;;;5071786;28;20090;-39
2022/02/19 00:25:54;;;;;;;19.92;9.23;;;;;;;;;;5071942;28;20095;-39
2022/02/19 00:28:20;;;;;;;22.08;10.02;;;;;;;;;;5071308;28;20021;-40
2022/02/19 00:30:46;;;;;;;19.20;8.52;;;;;;;;;;5071416;28;20115;-39
2022/02/19 00:33:11;;;;;;;18.10;8.07;;;;;;;;;;5071503;28;20149;-39
2022/02/19 00:35:37;;;;;;;20.73;9.25;;;;;;;;;;5071429;28;20040;-39
2022/02/19 00:38:02;;;;;;;22.05;9.05;;;;;;;;;;5071390;28;20024;-39
2022/02/19 00:40:28;;;;;;;19.20;8.07;;;;;;;;;;5071220;28;20454;-40
2022/02/19 00:42:53;;;;;;;18.80;6.75;;;;;;;;;;5071497;28;20024;-39
2022/02/19 00:45:19;;;;;;;13.75;7.00;;;;;;;;;;5071338;28;20104;-39
2022/02/19 00:47:44;;;;;;;11.45;6.28;;;;;;;;;;5071556;28;20059;-39
2022/02/19 00:50:10;;;;;;;17.42;8.15;;;;;;;;;;5071119;28;20505;-39
2022/02/19 00:52:36;;;;;;;12.10;6.70;;;;;;;;;;5071213;28;20071;-39
2022/02/19 00:55:02;;;;;;;18.83;6.60;;;;;;;;;;5070020;28;20070;-39
2022/02/19 00:57:28;;;;;;;10.52;6.55;;;;;;;;;;5071128;28;20115;-39
2022/02/19 00:59:53;;;;;;;5.95;4.47;;;;;;;;;;5071461;28;20147;-39
2022/02/19 01:02:20;;;;;;;10.10;5.85;;;;;;;;;;5069918;28;20075;-40
2022/02/19 01:05:07;;;;;;;13.35;7.07;;;;;;;;;;5071242;28;20510;-39
2022/02/19 01:07:33;;;;;;;12.10;6.10;;;;;;;;;;5071289;28;20082;-39
2022/02/19 01:09:58;;;;;;;12.35;6.15;;;;;;;;;;5071162;28;20013;-39
2022/02/19 01:12:24;;;;;;;13.63;5.75;;;;;;;;;;5069811;28;20028;-39
2022/02/19 01:14:49;;;;;;;8.65;5.53;;;;;;;;;;5071393;28;20056;-39
2022/02/19 01:17:15;;;;;;;12.02;5.97;;;;;;;;;;5069789;28;20024;-39
2022/02/19 01:19:40;;;;;;;11.55;5.75;;;;;;;;;;5069665;28;20078;-39
2022/02/19 01:22:08;;;;;;;10.70;4.75;;;;;;;;;;5069657;28;20045;-39
2022/02/19 01:24:33;;;;;;;13.50;6.85;;;;;;;;;;5069682;28;20528;-40
2022/02/19 01:27:00;;;;;;;17.17;7.15;;;;;;;;;;5069656;28;20033;-39
2022/02/19 01:29:26;;;;;;;15.52;7.38;;;;;;;;;;5071049;28;20459;-39
2022/02/19 01:31:52;;;;;;;13.98;6.78;;;;;;;;;;5069727;28;20032;-39
2022/02/19 01:34:17;;;;;;;11.10;6.40;;;;;;;;;;5052913;28;20021;-39
2022/02/19 01:36:43;;;;;;;12.10;7.97;;;;;;;;;;5069560;28;20074;-39
2022/02/19 01:39:11;;;;;;;14.52;7.97;;;;;;;;;;5070072;28;20481;-39
2022/02/19 01:41:37;;;;;;;16.58;8.65;;;;;;;;;;5073091;28;20040;-39
2022/02/19 01:44:03;;;;;;;16.17;8.27;;;;;;;;;;5074661;28;20405;-39
2022/02/19 01:46:29;;;;;;;13.60;6.97;;;;;;;;;;5073125;28;20123;-39
2022/02/19 01:48:54;;;;;;;13.50;7.80;;;;;;;;;;5073119;28;20166;-39
2022/02/19 01:51:21;;;;;;;14.32;8.82;;;;;;;;;;5073062;28;20059;-39
2022/02/19 01:53:47;;;;;;;17.27;7.95;;;;;;;;;;5074369;28;20028;-39
2022/02/19 01:56:20;;;;;;;;;;;;;;;;;;5073430;28;20031;-39
2022/02/19 01:59:08;;;;;;;13.55;7.70;;;;;;;;;;5073095;28;19908;-39
2022/02/19 02:02:10;;;;;;;18.67;8.23;;;;;;;;;;5012141;28;20145;-39
2022/02/19 02:05:01;;;;;;;19.45;8.80;;;;;;;;;;5070616;28;20047;-39
2022/02/19 02:07:27;;;;;;;24.05;9.57;;;;;;;;;;5072806;28;20024;-39
2022/02/19 02:09:52;;;;;;;20.15;9.13;;;;;;;;;;5074066;28;20027;-39
2022/02/19 02:12:18;;;;;;;21.35;11.02;;;;;;;;;;5072827;28;20086;-39
2022/02/19 02:14:58;;;;;;;24.23;11.80;;;;;;;;;;5072798;28;20028;-39
2022/02/19 02:17:36;;;;;;;25.50;11.32;;;;;;;;;;5072546;28;20028;-39
2022/02/19 02:20:02;;;;;;;20.00;10.88;;;;;;;;;;5072662;28;20398;-39
2022/02/19 02:22:28;;;;;;;21.75;10.25;;;;;;;;;;5072489;28;20494;-39
2022/02/19 02:24:53;;;;;;;19.05;10.48;;;;;;;;;;5073916;28;20470;-40
2022/02/19 02:27:37;;;;;;;;;;;;;;;;;;5072890;28;20066;-39
2022/02/19 02:30:03;;;;;;;20.67;9.20;;;;;;;;;;5072540;28;20432;-39
2022/02/19 02:32:36;;;;;;;20.33;9.48;;;;;;;;;;5072308;28;20063;-39
2022/02/19 02:35:02;;;;;;;16.85;9.07;;;;;;;;;;5072776;28;20036;-39
2022/02/19 02:37:34;;;;;;;16.75;8.02;;;;;;;;;;5072204;28;20020;-39
2022/02/19 02:40:00;;;;;;;20.70;8.68;;;;;;;;;;5073540;28;20043;-39
2022/02/19 02:42:31;;;;;;;19.40;8.40;;;;;;;;;;5073409;28;20036;-39
2022/02/19 02:45:00;;;;;;;11.35;6.53;;;;;;;;;;5072187;28;20035;-39
2022/02/19 02:47:25;;;;;;;13.45;7.28;;;;;;;;;;5073322;28;20020;-39
2022/02/19 02:49:51;;;;;;;14.93;7.07;;;;;;;;;;5071469;28;20040;-39
2022/02/19 02:52:17;;;;;;;17.67;7.63;;;;;;;;;;5072124;28;20032;-39
2022/02/19 02:54:43;;;;;;;18.10;8.02;;;;;;;;;;5071824;28;20024;-39
2022/02/19 02:57:09;;;;;;;16.73;8.23;;;;;;;;;;5071951;28;20079;-39
2022/02/19 02:59:35;;;;;;;14.65;7.57;;;;;;;;;;5055168;28;20546;-39
2022/02/19 03:02:00;;;;;;;13.45;5.93;;;;;;;;;;5071786;28;20120;-39
2022/02/19 03:04:26;;;;;;;19.58;10.15;;;;;;;;;;5071892;28;20029;-39
2022/02/19 03:06:51;;;;;;;20.60;8.63;;;;;;;;;;5072942;28;20029;-39
2022/02/19 03:09:17;;;;;;;19.13;9.05;;;;;;;;;;5071676;28;20074;-39
2022/02/19 03:11:43;;;;;;;18.85;9.05;;;;;;;;;;5071628;28;20078;-39
2022/02/19 03:14:10;;;;;;;21.67;9.18;;;;;;;;;;5071510;28;20440;-39
2022/02/19 03:16:36;;;;;;;25.02;8.45;;;;;;;;;;5071525;28;20033;-39
2022/02/19 03:19:01;;;;;;;20.27;9.00;;;;;;;;;;5071377;28;20032;-39
2022/02/19 03:21:27;;;;;;;14.02;7.32;;;;;;;;;;5071306;28;20055;-39
2022/02/19 03:23:52;;;;;;;18.42;8.23;;;;;;;;;;5072778;28;20024;-39
2022/02/19 03:26:21;;;;;;;19.52;8.98;;;;;;;;;;5072687;28;20020;-39
2022/02/19 03:28:48;;;;;;;17.13;8.65;;;;;;;;;;5071182;28;20125;-39
2022/02/19 03:31:15;;;;;;;18.10;9.10;;;;;;;;;;5071210;28;20021;-39
2022/02/19 03:33:46;;;;;;;13.98;6.72;;;;;;;;;;5055392;28;20056;-39
2022/02/19 03:36:15;;;;;;;13.32;7.75;;;;;;;;;;5071017;28;20107;-39
2022/02/19 03:38:40;;;;;;;17.77;9.05;;;;;;;;;;5071058;28;20021;-40
2022/02/19 03:41:10;;;;;;;17.80;9.45;;;;;;;;;;5071049;28;20032;-39
2022/02/19 03:43:36;;;;;;;15.63;8.48;;;;;;;;;;5070836;28;20039;-39
2022/02/19 03:46:04;;;;;;;17.00;8.15;;;;;;;;;;5071028;28;20394;-39
2022/02/19 03:48:46;;;;;;;18.10;9.57;;;;;;;;;;5070901;28;20750;-39
2022/02/19 03:51:13;;;;;;;18.10;9.68;;;;;;;;;;5070656;28;20044;-39
2022/02/19 03:53:42;;;;;;;17.42;9.05;;;;;;;;;;5070708;28;20055;-39
2022/02/19 03:56:08;;;;;;;18.27;9.63;;;;;;;;;;5072344;28;20040;-39
2022/02/19 03:58:34;;;;;;;21.90;10.13;;;;;;;;;;5070583;28;20516;-39
2022/02/19 04:01:02;;;;;;;18.25;9.07;;;;;;;;;;5054350;28;20059;-39
2022/02/19 04:03:28;;;;;;;25.27;11.52;;;;;;;;;;5069892;28;20024;-39
2022/02/19 04:05:54;;;;;;;27.55;10.73;;;;;;;;;;5070590;28;20032;-39
2022/02/19 04:08:22;;;;;;;24.35;11.07;;;;;;;;;;5070572;28;20024;-39
2022/02/19 04:10:51;;;;;;;21.05;10.23;;;;;;;;;;5070425;28;20063;-39
2022/02/19 04:13:16;;;;;;;21.10;10.23;;;;;;;;;;5071930;28;20395;-39
2022/02/19 04:15:54;;;;;;;23.98;10.00;;;;;;;;;;5070511;28;20139;-39
2022/02/19 04:18:20;;;;;;;20.38;10.95;;;;;;;;;;5070288;28;20498;-39
2022/02/19 04:20:46;;;;;;;22.33;10.38;;;;;;;;;;5070265;28;20021;-39
2022/02/19 04:23:12;;;;;;;19.20;9.70;;;;;;;;;;5070387;28;20028;-39
2022/02/19 04:25:37;;;;;;;21.08;9.55;;;;;;;;;;5071578;28;20550;-39
2022/02/19 04:28:12;;;;;;;22.92;10.93;;;;;;;;;;5070255;28;20080;-39
2022/02/19 04:30:39;;;;;;;22.33;10.55;;;;;;;;;;5070157;28;20024;-39
2022/02/19 04:33:06;;;;;;;21.23;9.48;;;;;;;;;;5070241;28;20047;-39
2022/02/19 04:35:33;;;;;;;19.48;8.82;;;;;;;;;;5071363;28;20025;-39
2022/02/19 04:37:58;;;;;;;21.00;8.60;;;;;;;;;;5071785;28;20032;-39
2022/02/19 04:40:27;;;;;;;25.50;10.40;;;;;;;;;;5071207;28;20024;-39
2022/02/19 04:42:53;;;;;;;24.77;9.75;;;;;;;;;;5071428;28;20031;-39
2022/02/19 04:45:25;;;;;;;27.20;10.23;;;;;;;;;;5070056;28;20494;-39
2022/02/19 04:47:53;;;;;;;19.83;9.32;;;;;;;;;;5069928;28;20067;-39
2022/02/19 04:50:20;;;;;;;22.13;8.48;;;;;;;;;;5069926;28;20151;-39
2022/02/19 04:52:47;;;;;;;24.00;9.70;;;;;;;;;;5069923;28;20097;-39
2022/02/19 04:55:15;;;;;;;23.83;9.38;;;;;;;;;;5069987;28;20032;-39
2022/02/19 04:57:43;;;;;;;26.95;10.38;;;;;;;;;;5069810;28;20062;-39
2022/02/19 05:00:10;;;;;;;23.63;8.60;;;;;;;;;;5070008;28;20217;-39
2022/02/19 05:02:56;;;;;;;21.55;8.98;;;;;;;;;;5071087;28;20071;-39
2022/02/19 05:05:22;;;;;;;16.58;7.97;;;;;;;;;;5071164;28;20068;-39
2022/02/19 05:07:49;;;;;;;22.73;9.07;;;;;;;;;;5069667;28;20585;-39
2022/02/19 05:10:14;;;;;;;22.45;8.65;;;;;;;;;;5071449;28;20123;-40
2022/02/19 05:12:43;;;;;;;23.58;9.80;;;;;;;;;;5069783;28;20017;-39
2022/02/19 05:15:14;;;;;;;15.55;6.57;;;;;;;;;;5073839;28;20086;-39
2022/02/19 05:17:47;;;;;;;21.92;9.05;;;;;;;;;;5057953;28;20395;-39
2022/02/19 05:20:13;;;;;;;15.52;7.65;;;;;;;;;;5073653;28;20021;-39
2022/02/19 05:22:41;;;;;;;20.55;7.88;;;;;;;;;;5073511;28;20067;-39
2022/02/19 05:25:07;;;;;;;17.02;9.50;;;;;;;;;;5073690;28;20052;-39
2022/02/19 05:27:32;;;;;;;16.88;7.78;;;;;;;;;;5073612;28;20024;-39
2022/02/19 05:30:05;;;;;;;22.35;7.50;;;;;;;;;;5073552;28;20111;-39
2022/02/19 05:32:34;;;;;;;21.70;8.57;;;;;;;;;;5073512;28;20094;-39
2022/02/19 05:35:06;;;;;;;14.65;6.85;;;;;;;;;;5073566;28;20074;-39
2022/02/19 05:37:35;;;;;;;17.90;7.70;;;;;;;;;;5073196;28;20036;-39
2022/02/19 05:40:01;;;;;;;18.92;7.72;;;;;;;;;;5073436;28;20119;-39
2022/02/19 05:42:29;;;;;;;15.95;8.02;;;;;;;;;;5073261;28;20519;-40
2022/02/19 05:45:14;;;;;;;16.38;7.55;;;;;;;;;;5074529;28;20501;-39
2022/02/19 05:47:43;;;;;;;17.65;7.65;;;;;;;;;;5073084;28;20032;-39
2022/02/19 05:50:35;;;;;;;12.95;6.53;;;;;;;;;;5071017;28;20044;-39
2022/02/19 05:53:19;;;;;;;14.20;6.93;;;;;;;;;;5073194;28;20127;-39
2022/02/19 05:55:46;;;;;;;13.15;6.07;;;;;;;;;;5073038;28;20031;-39
2022/02/19 05:58:12;;;;;;;15.60;6.53;;;;;;;;;;5074592;28;20031;-39
2022/02/19 06:00:47;;;;;;;8.20;5.40;;;;;;;;;;5072914;28;20049;-39
2022/02/19 06:03:13;;;;;;;10.32;5.72;;;;;;;;;;5074617;28;20048;-39
2022/02/19 06:05:38;;;;;;;18.98;7.68;;;;;;;;;;5072888;28;20479;-39
2022/02/19 06:08:04;;;;;;;17.10;7.47;;;;;;;;;;5074046;28;20032;-39
2022/02/19 06:10:29;;;;;;;12.23;5.57;;;;;;;;;;5072975;28;20017;-39
2022/02/19 06:12:57;;;;;;;12.25;6.20;;;;;;;;;;5072719;28;20479;-39
2022/02/19 06:15:29;;;;;;;6.97;4.43;;;;;;;;;;5072648;28;20486;-39
2022/02/19 06:18:13;;;;;;;11.15;5.85;;;;;;;;;;5074248;28;20434;-39
2022/02/19 06:20:39;;;;;;;10.15;5.65;;;;;;;;;;5072483;28;20499;-39
2022/02/19 06:23:15;;;;;;;12.02;6.28;;;;;;;;;;5072641;28;20081;-39
2022/02/19 06:25:40;;;;;;;13.48;5.97;;;;;;;;;;5073002;28;20479;-39
2022/02/19 06:28:06;;;;;;;8.52;3.90;;;;;;;;;;5072453;28;20024;-39
2022/02/19 06:30:34;;;;;;;11.40;4.82;;;;;;;;;;5072446;28;20047;-39
2022/02/19 06:33:06;;;;;;;13.57;5.35;;;;;;;;;;5072462;28;20101;-39
2022/02/19 06:35:32;;;;;;;13.38;5.65;;;;;;;;;;5072264;28;20049;-39
2022/02/19 06:38:15;;;;;;;14.63;6.65;;;;;;;;;;5072328;28;20020;-39
2022/02/19 06:40:43;;;;;;;11.63;4.88;;;;;;;;;;5072191;28;20033;-39
2022/02/19 06:43:09;;;;;;;7.25;5.53;;;;;;;;;;5072296;28;20044;-39
2022/02/19 06:45:35;;;;;;;9.70;5.25;;;;;;;;;;5072073;28;20556;-39
2022/02/19 06:48:02;;;;;;;14.98;5.35;;;;;;;;;;5072026;28;20479;-39
2022/02/19 06:50:27;;;;;;;8.57;5.30;;;;;;;;;;5073216;28;20047;-39
2022/02/19 06:52:58;;;;;;;8.82;4.47;;;;;;;;;;5056069;28;20039;-39
2022/02/19 06:55:23;;;;;;;7.18;4.18;;;;;;;;;;5073325;28;20033;-39
2022/02/19 06:57:50;;;;;;;8.95;4.35;;;;;;;;;;5071857;28;20039;-39
2022/02/19 07:00:17;;;;;;;7.15;4.32;;;;;;;;;;5071995;28;20040;-39
2022/02/19 07:02:49;;;;;;;5.60;3.65;;;;;;;;;;5071586;28;20036;-39
2022/02/19 07:05:17;;;;;;;17.38;6.40;;;;;;;;;;5071883;28;20032;-39
2022/02/19 07:08:02;;;;;;;19.42;7.63;;;;;;;;;;5073327;28;20162;-39
2022/02/19 07:10:29;;;;;;;13.65;4.38;;;;;;;;;;5071497;28;20407;-39
2022/02/19 07:12:57;;;;;;;8.98;3.42;;;;;;;;;;5071600;28;20017;-39
2022/02/19 07:15:23;;;;;;;6.50;3.97;;;;;;;;;;5071600;28;20047;-39
2022/02/19 07:18:01;;;;;;;11.05;3.45;;;;;;;;;;5071575;28;20024;-39
2022/02/19 07:20:36;;;;;;;7.15;2.70;;;;;;;;;;5071423;28;20078;-40
2022/02/19 07:23:01;;;;;;;5.70;2.88;;;;;;;;;;5071331;28;20062;-39
2022/02/19 07:25:27;;;;;;;9.40;4.50;;;;;;;;;;5071397;28;20024;-39
2022/02/19 07:27:54;;;;;;;7.97;3.45;;;;;;;;;;5071211;28;20391;-39
2022/02/19 07:30:20;;;;;;;9.45;2.80;;;;;;;;;;5071301;28;20021;-39
2022/02/19 07:32:51;;;;;;;5.07;3.53;;;;;;;;;;5071275;28;20402;-39
2022/02/19 07:35:49;;;;;;;10.23;3.33;;;;;;;;;;5071991;28;20041;-40
2022/02/19 07:38:21;;;;;;;4.65;3.50;;;;;;;;;;5071052;28;20475;-39
2022/02/19 07:40:47;;;;;;;5.60;3.25;;;;;;;;;;5071181;28;20044;-39
2022/02/19 07:43:13;;;;;;;5.82;3.40;;;;;;;;;;5071103;28;20033;-39
2022/02/19 07:46:01;;;;;;;5.30;4.30;;;;;;;;;;5072604;28;20418;-39
2022/02/19 08:00:37;;;;;;;5.95;3.17;;;;;;;;;;5071834;28;20047;-39
2022/02/19 08:03:04;;;;;;;8.40;3.60;;;;;;;;;;5070737;28;20023;-39
2022/02/19 08:05:30;;;;;;;11.93;4.65;;;;;;;;;;5070646;28;20489;-39
2022/02/19 08:07:56;;;;;;;2.17;1.98;;;;;;;;;;5070433;28;20020;-40
2022/02/19 08:10:22;;;;;;;4.15;2.85;;;;;;;;;;5070617;28;20036;-39
2022/02/19 08:12:47;;;;;;;7.85;2.90;;;;;;;;;;5071715;28;20025;-39
2022/02/19 08:15:13;;;;;;;4.95;3.55;;;;;;;;;;5071717;28;20429;-39
2022/02/19 08:17:41;;;;;;;7.88;3.10;;;;;;;;;;5071902;28;20020;-39
2022/02/19 08:20:07;;;;;;;4.13;2.63;;;;;;;;;;5071592;28;20443;-39
2022/02/19 08:22:33;;;;;;;9.15;4.82;;;;;;;;;;5071847;28;20039;-39
2022/02/19 08:24:59;;;;;;;3.30;2.50;;;;;;;;;;5072000;28;20398;-39
2022/02/19 08:27:24;;;;;;;3.15;1.80;;;;;;;;;;5071772;28;20448;-39
2022/02/19 08:29:50;;;;;;;5.10;2.92;;;;;;;;;;5071494;28;20035;-39
2022/02/19 08:32:15;;;;;;;5.97;3.10;;;;;;;;;;5071621;28;20025;-39
2022/02/19 08:34:41;;;;;;;4.82;2.92;;;;;;;;;;5071418;28;20067;-39
2022/02/19 08:37:07;;;;;;;3.80;3.25;;;;;;;;;;5071784;28;20112;-40
2022/02/19 08:39:33;;;;;;;4.30;2.50;;;;;;;;;;5071320;28;20398;-39
2022/02/19 08:41:59;;;;;;;5.93;3.20;;;;;;;;;;5071631;28;20048;-39
2022/02/19 08:44:24;;;;;;;6.50;2.38;;;;;;;;;;5071427;28;20502;-39
2022/02/19 08:46:50;;;;;;;4.70;2.42;;;;;;;;;;5071323;28;20101;-39
2022/02/19 08:49:16;;;;;;;3.85;2.40;;;;;;;;;;5070939;28;20021;-39
2022/02/19 08:51:42;;;;;;;2.95;1.80;;;;;;;;;;5070998;28;20087;-39
2022/02/19 08:54:09;;;;;;;4.38;2.60;;;;;;;;;;5071432;28;20036;-39
2022/02/19 08:56:35;;;;;;;4.50;2.40;;;;;;;;;;5071117;28;20102;-39
2022/02/19 08:59:02;;;;;;;6.68;3.08;;;;;;;;;;5071567;28;20071;-39
2022/02/19 09:01:28;;;;;;;4.95;3.33;;;;;;;;;;5071170;28;20467;-39
2022/02/19 09:03:54;;;;;;;4.10;2.75;;;;;;;;;;5070964;28;20033;-39
2022/02/19 09:06:20;;;;;;;4.28;2.35;;;;;;;;;;5071528;28;20020;-39
2022/02/19 09:08:46;;;;;;;4.20;2.40;;;;;;;;;;5071027;28;20029;-39
2022/02/19 09:11:12;;;;;;;3.50;1.75;;;;;;;;;;5071376;28;20024;-39
2022/02/19 09:13:37;;;;;;;2.08;1.55;;;;;;;;;;5071390;28;20467;-39
2022/02/19 09:16:03;;;;;;;4.25;2.50;;;;;;;;;;5071050;28;20379;-39
2022/02/19 09:18:29;;;;;;;3.05;2.30;;;;;;;;;;5070991;28;20254;-39
2022/02/19 09:20:56;;;;;;;3.20;2.30;;;;;;;;;;5070949;28;20023;-40
2022/02/19 09:23:22;;;;;;;3.65;1.75;;;;;;;;;;5070975;28;20036;-39
2022/02/19 09:25:47;;;;;;;2.15;1.55;;;;;;;;;;5070961;28;20107;-39
2022/02/19 09:28:13;;;;;;;3.28;2.92;;;;;;;;;;5071190;28;20043;-40
2022/02/19 09:30:39;;;;;;;1.60;1.38;;;;;;;;;;5070897;28;20152;-39
2022/02/19 09:33:04;;;;;;;3.65;2.95;;;;;;;;;;5071037;28;20059;-39
2022/02/19 09:35:31;;;;;;;5.10;2.03;;;;;;;;;;5069973;28;20040;-39
2022/02/19 09:37:56;;;;;;;3.75;2.60;;;;;;;;;;5071029;28;20032;-39
2022/02/19 09:40:22;;;;;;;3.95;2.50;;;;;;;;;;5070842;28;20541;-39
2022/02/19 09:42:51;;;;;;;3.25;1.77;;;;;;;;;;5071067;28;20040;-39
2022/02/19 09:45:23;;;;;;;3.78;2.28;;;;;;;;;;5070778;28;20066;-39
2022/02/19 09:47:49;;;;;;;2.65;2.10;;;;;;;;;;5071077;28;20127;-39
2022/02/19 09:50:16;;;;;;;4.82;2.10;;;;;;;;;;5070493;28;20054;-39
2022/02/19 09:52:41;;;;;;;3.20;2.47;;;;;;;;;;5070700;28;20028;-39
2022/02/19 09:55:07;;;;;;;3.85;2.38;;;;;;;;;;5070794;28;20034;-39
2022/02/19 09:57:33;;;;;;;3.60;2.63;;;;;;;;;;5070697;28;20086;-39
2022/02/19 09:59:58;;;;;;;2.40;1.77;;;;;;;;;;5071035;28;20058;-39
2022/02/19 10:02:34;;;;;;;2.95;1.88;;;;;;;;;;5074252;28;20032;-41
2022/02/19 10:05:18;;;;;;;3.08;1.83;;;;;;;;;;5074230;28;20082;-39
2022/02/19 10:07:58;;;;;;;2.85;1.52;;;;;;;;;;5074058;28;20056;-39
2022/02/19 10:10:25;;;;;;;4.47;1.70;;;;;;;;;;5074537;28;20043;-40
2022/02/19 10:12:50;;;;;;;1.45;1.20;;;;;;;;;;5074133;28;20025;-39
2022/02/19 10:15:16;;;;;;;4.30;2.25;;;;;;;;;;5074304;28;20037;-39
2022/02/19 10:17:41;;;;;;;3.35;2.03;;;;;;;;;;5073886;28;20016;-40
2022/02/19 10:20:09;;;;;;;3.78;2.42;;;;;;;;;;5074213;28;20035;-39
2022/02/19 10:22:36;;;;;;;3.92;2.05;;;;;;;;;;5073787;28;20025;-39
2022/02/19 10:25:06;;;;;;;3.95;2.20;;;;;;;;;;5074013;28;20032;-39
2022/02/19 10:27:49;;;;;;;3.75;2.47;;;;;;;;;;5073886;28;20471;-39
2022/02/19 10:30:18;;;;;;;2.38;1.65;;;;;;;;;;5072529;28;20031;-39
2022/02/19 10:32:48;;;;;;;2.78;1.75;;;;;;;;;;5073962;28;20035;-39
2022/02/19 10:35:14;;;;;;;3.20;1.77;;;;;;;;;;5073677;28;20479;-39
2022/02/19 10:37:44;;;;;;;3.42;2.30;;;;;;;;;;5073919;28;20029;-39
2022/02/19 10:40:27;;;;;;;5.20;2.42;;;;;;;;;;5073915;28;20029;-39
2022/02/19 10:42:57;;;;;;;4.22;3.13;;;;;;;;;;5073466;28;20047;-39
2022/02/19 10:45:22;;;;;;;2.83;1.92;;;;;;;;;;5073487;28;20021;-39
2022/02/19 10:47:48;;;;;;;4.00;2.05;;;;;;;;;;5073719;28;20115;-39
2022/02/19 10:50:16;;;;;;;3.92;2.10;;;;;;;;;;5073173;28;20237;-39
2022/02/19 10:52:43;;;;;;;4.25;2.58;;;;;;;;;;5073609;28;20029;-39
2022/02/19 10:55:09;;;;;;;8.02;2.67;;;;;;;;;;5073677;28;20036;-39
2022/02/19 10:57:35;;;;;;;7.53;3.38;;;;;;;;;;5073088;28;20028;-39
2022/02/19 11:00:10;;;;;;;9.00;3.85;;;;;;;;;;5073492;28;20013;-39
2022/02/19 11:02:37;;;;;;;4.38;2.63;;;;;;;;;;5073071;28;20044;-39
2022/02/19 11:05:02;;;;;;;5.53;3.22;;;;;;;;;;5073081;28;20016;-39
2022/02/19 11:07:28;;;;;;;4.68;3.03;;;;;;;;;;5073405;28;20066;-39
2022/02/19 11:09:54;;;;;;;10.93;3.80;;;;;;;;;;5072925;28;20471;-39
2022/02/19 11:12:20;;;;;;;8.25;3.83;;;;;;;;;;5072683;28;20074;-39
2022/02/19 11:14:46;;;;;;;6.15;3.42;;;;;;;;;;5072923;28;20028;-39
2022/02/19 11:17:12;;;;;;;6.80;3.13;;;;;;;;;;5073140;28;20151;-39
2022/02/19 11:19:39;;;;;;;5.28;2.72;;;;;;;;;;5072849;28;20054;-39
2022/02/19 11:22:06;;;;;;;6.60;3.67;;;;;;;;;;5072992;28;20048;-39
2022/02/19 11:24:32;;;;;;;4.35;2.67;;;;;;;;;;5072793;28;20108;-39
2022/02/19 11:27:00;;;;;;;8.27;3.33;;;;;;;;;;5072822;28;20028;-39
2022/02/19 11:29:26;;;;;;;4.97;3.33;;;;;;;;;;5072667;28;20095;-39
2022/02/19 11:31:53;;;;;;;9.95;4.03;;;;;;;;;;5072522;28;20423;-39
2022/02/19 11:34:27;;;;;;;8.02;3.97;;;;;;;;;;5072633;28;20044;-39
2022/02/19 11:37:10;;;;;;;5.78;2.90;;;;;;;;;;5072436;28;20025;-44
2022/02/19 11:39:55;;;;;;;5.47;2.83;;;;;;;;;;5072336;28;20036;-40
2022/02/19 11:42:36;;;;;;;4.10;2.80;;;;;;;;;;5072292;28;20380;-39
2022/02/19 11:45:41;;;;;;;5.10;3.65;;;;;;;;;;5072410;28;20025;-39
2022/02/19 11:48:06;;;;;;;7.38;3.33;;;;;;;;;;5010135;28;20040;-39
2022/02/19 11:50:33;;;;;;;6.63;3.03;;;;;;;;;;5010031;28;20046;-39
2022/02/19 11:53:08;;;;;;;6.60;3.88;;;;;;;;;;5039419;28;20051;-42
2022/02/19 11:55:35;;;;;;;5.95;3.55;;;;;;;;;;5072113;28;20098;-39
2022/02/19 11:58:05;;;;;;;7.28;4.15;;;;;;;;;;5072258;28;20428;-39
2022/02/19 12:00:43;;;;;;;6.35;3.83;;;;;;;;;;5072091;28;20024;-39
2022/02/19 12:03:19;;;;;;;5.65;3.45;;;;;;;;;;5072304;28;20049;-39
2022/02/19 12:06:03;;;;;;;9.57;3.83;;;;;;;;;;5072154;28;20038;-39
2022/02/19 12:08:48;;;;;;;6.22;3.55;;;;;;;;;;5071922;28;20032;-40
2022/02/19 12:11:14;;;;;;;5.07;3.10;;;;;;;;;;5071905;28;20031;-39
2022/02/19 12:13:46;;;;;;;7.88;3.55;;;;;;;;;;5071769;28;20024;-39
2022/02/19 12:18:57;;;;;;;7.70;3.30;;;;;;;;;;5071947;28;20033;-40
2022/02/19 12:21:42;;;;;;;7.05;3.80;;;;;;;;;;5071568;28;20124;-39
2022/02/19 12:24:09;;;;;;;8.38;3.40;;;;;;;;;;5070918;28;20364;-39
2022/02/19 12:26:53;;;;;;;14.10;6.28;;;;;;;;;;5071635;28;20490;-39
2022/02/19 12:29:40;;;;;;;8.30;4.15;;;;;;;;;;5070082;28;20086;-39
2022/02/19 12:32:17;;;;;;;8.02;4.03;;;;;;;;;;5071355;28;20398;-39
2022/02/19 12:34:50;;;;;;;6.93;3.13;;;;;;;;;;5071468;28;20104;-39
2022/02/19 12:37:16;;;;;;;6.75;3.95;;;;;;;;;;5071470;28;20035;-39
2022/02/19 12:39:43;;;;;;;10.55;6.32;;;;;;;;;;5069916;28;20475;-39
2022/02/19 12:42:09;;;;;;;7.63;4.30;;;;;;;;;;5071180;28;20045;-39
2022/02/19 12:44:35;;;;;;;10.93;6.47;;;;;;;;;;5070946;28;20418;-39
2022/02/19 12:47:00;;;;;;;12.45;4.05;;;;;;;;;;5071197;28;20040;-39
2022/02/19 12:49:26;;;;;;;6.65;3.80;;;;;;;;;;5071571;28;20029;-40
2022/02/19 12:51:54;;;;;;;7.70;3.28;;;;;;;;;;5071178;28;20469;-39
2022/02/19 12:54:37;;;;;;;8.98;3.05;;;;;;;;;;5071335;28;20487;-39
2022/02/19 12:57:06;;;;;;;5.45;3.40;;;;;;;;;;5071060;28;20040;-39
2022/02/19 12:59:33;;;;;;;6.15;3.60;;;;;;;;;;5071297;28;20024;-39
2022/02/19 13:02:03;;;;;;;5.72;3.20;;;;;;;;;;5071118;28;20037;-39
2022/02/19 13:04:37;;;;;;;7.18;3.78;;;;;;;;;;5069874;28;20127;-39
2022/02/19 13:07:03;;;;;;;6.28;2.83;;;;;;;;;;5071132;28;20536;-39
2022/02/19 13:09:29;;;;;;;8.00;3.20;;;;;;;;;;5071254;28;20051;-39
2022/02/19 13:11:56;;;;;;;5.03;3.15;;;;;;;;;;5071006;28;20036;-39
2022/02/19 13:14:23;;;;;;;5.97;3.63;;;;;;;;;;5071443;28;20413;-39
2022/02/19 13:16:57;;;;;;;3.63;2.75;;;;;;;;;;5071353;28;20041;-39
2022/02/19 13:19:23;;;;;;;6.80;3.80;;;;;;;;;;5071058;28;20090;-39
2022/02/19 13:22:19;;;;;;;5.60;3.92;;;;;;;;;;5070877;28;20060;-39
2022/02/19 13:24:44;;;;;;;4.50;3.25;;;;;;;;;;5056985;28;20044;-39
2022/02/19 13:27:20;;;;;;;7.47;3.88;;;;;;;;;;5070854;28;20420;-40
2022/02/19 13:29:47;;;;;;;6.28;3.08;;;;;;;;;;5071196;28;20028;-39
2022/02/19 13:32:13;;;;;;;6.07;3.08;;;;;;;;;;5071053;28;20513;-39
2022/02/19 13:34:39;;;;;;;7.40;3.58;;;;;;;;;;5072036;28;20120;-39
2022/02/19 13:37:05;;;;;;;5.68;3.30;;;;;;;;;;5074815;28;20105;-39
2022/02/19 13:39:35;;;;;;;5.50;2.42;;;;;;;;;;5074765;28;20447;-39
2022/02/19 13:42:01;;;;;;;3.88;2.83;;;;;;;;;;5074517;28;20040;-39
2022/02/19 13:44:28;;;;;;;5.43;2.97;;;;;;;;;;5074638;28;20127;-39
2022/02/19 13:46:57;;;;;;;5.90;2.83;;;;;;;;;;5074501;28;20485;-39
2022/02/19 13:49:36;;;;;;;3.83;3.10;;;;;;;;;;5074618;28;20074;-39
2022/02/19 13:52:02;;;;;;;4.32;2.78;;;;;;;;;;5074522;28;20040;-40
2022/02/19 13:54:37;;;;;;;6.45;2.38;;;;;;;;;;5074769;28;20029;-39
2022/02/19 13:57:15;;;;;;;5.20;2.92;;;;;;;;;;5074631;28;20459;-39
2022/02/19 13:59:56;;;;;;;3.78;2.78;;;;;;;;;;5074261;28;20033;-39
2022/02/19 14:02:22;;;;;;;3.28;2.40;;;;;;;;;;5074200;28;20063;-39
2022/02/19 14:04:56;;;;;;;4.22;2.58;;;;;;;;;;5074485;28;20024;-39
2022/02/19 14:07:21;;;;;;;4.25;2.58;;;;;;;;;;5074486;28;20043;-39
2022/02/19 14:10:02;;;;;;;3.50;2.13;;;;;;;;;;5074185;28;20430;-39
2022/02/19 14:12:37;;;;;;;3.55;2.30;;;;;;;;;;5074209;28;20540;-39
2022/02/19 14:15:06;;;;;;;4.60;2.55;;;;;;;;;;5074044;28;20028;-39
2022/02/19 14:17:42;;;;;;;3.78;2.60;;;;;;;;;;5073955;28;20016;-39
2022/02/19 14:20:10;;;;;;;5.70;3.45;;;;;;;;;;5073990;28;20043;-39
2022/02/19 14:22:36;;;;;;;6.57;2.70;;;;;;;;;;5074197;28;20045;-39
2022/02/19 14:25:03;;;;;;;5.40;2.95;;;;;;;;;;5072641;28;20414;-40
2022/02/19 14:27:29;;;;;;;4.55;2.63;;;;;;;;;;5074208;28;20288;-39
2022/02/19 14:29:55;;;;;;;2.40;2.17;;;;;;;;;;5073985;28;20077;-39
2022/02/19 14:32:20;;;;;;;4.00;2.30;;;;;;;;;;5073782;28;20474;-39
2022/02/19 14:34:46;;;;;;;4.07;2.95;;;;;;;;;;5073734;28;20035;-39
2022/02/19 14:37:12;;;;;;;3.67;2.95;;;;;;;;;;5073638;28;20039;-39
2022/02/19 14:39:37;;;;;;;5.75;3.83;;;;;;;;;;5073726;28;20036;-39
2022/02/19 14:42:03;;;;;;;6.50;3.28;;;;;;;;;;5073757;28;20028;-39
2022/02/19 14:44:30;;;;;;;8.70;3.25;;;;;;;;;;5073800;28;20225;-39
2022/02/19 14:46:56;;;;;;;4.80;3.58;;;;;;;;;;5072704;28;20533;-40
2022/02/19 14:49:22;;;;;;;6.78;3.25;;;;;;;;;;5073510;28;20165;-39
2022/02/19 14:51:47;;;;;;;6.40;3.88;;;;;;;;;;5073092;28;20113;-39
2022/02/19 14:54:13;;;;;;;7.43;3.38;;;;;;;;;;5073394;28;20174;-39
2022/02/19 14:56:39;;;;;;;5.68;3.25;;;;;;;;;;5073347;28;20024;-40
2022/02/19 14:59:04;;;;;;;4.93;2.92;;;;;;;;;;5073601;28;20028;-39
2022/02/19 15:01:31;;;;;;;4.65;2.97;;;;;;;;;;5073326;28;20101;-39